Time;durP1;ratioP1;P1;durP2;ratioP2;P2;SDS_P1;SDS_P2;PMS_P1;PMS_P2;Temp;Humidity;BMP_temperature;BMP_pressure;BME280_temperature;BME280_humidity;BME280_pressure;Samples;Min_cycle;Max_cycle;Signal;HPM_P1;HPM_P2
2024/04/24 00:00:25;;;;;;;20.52;16.60;;;;;;;8.39;100.00;95419.06;7394877;19;19991;-56
2024/04/24 00:02:54;;;;;;;23.10;16.50;;;;;;;8.28;100.00;95410.91;7394969;19;20018;-60
2024/04/24 00:05:21;;;;;;;23.13;16.35;;;;;;;8.33;100.00;95412.38;7394820;19;20012;-56
2024/04/24 00:07:47;;;;;;;23.75;17.13;;;;;;;8.38;100.00;95403.50;7395139;19;20007;-60
2024/04/24 00:10:14;;;;;;;24.52;17.45;;;;;;;8.42;100.00;95410.25;7391301;19;20348;-54
2024/04/24 00:12:40;;;;;;;21.42;16.30;;;;;;;8.31;100.00;95402.94;7394749;19;19999;-55
2024/04/24 00:15:06;;;;;;;22.30;16.58;;;;;;;8.40;100.00;95396.44;7394592;19;20013;-58
2024/04/24 00:17:32;;;;;;;25.20;18.50;;;;;;;8.41;100.00;95398.13;7394434;19;20003;-55
2024/04/24 00:19:58;;;;;;;23.55;17.50;;;;;;;8.27;100.00;95389.22;7394380;19;20010;-61
2024/04/24 00:22:23;;;;;;;26.10;19.20;;;;;;;8.28;100.00;95372.66;7398707;19;20002;-56
2024/04/24 00:24:49;;;;;;;24.27;18.27;;;;;;;8.32;100.00;95375.97;7401784;19;20362;-58
2024/04/24 00:27:14;;;;;;;28.45;19.92;;;;;;;8.34;100.00;95374.97;7402071;19;20003;-57
2024/04/24 00:29:40;;;;;;;31.52;19.33;;;;;;;8.32;100.00;95381.19;7399560;19;20020;-53
2024/04/24 00:32:05;;;;;;;27.73;20.20;;;;;;;8.39;100.00;95379.97;7401971;19;20470;-57
2024/04/24 00:34:31;;;;;;;26.85;19.85;;;;;;;8.39;100.00;95379.09;7401832;19;20355;-53
2024/04/24 00:36:57;;;;;;;28.08;18.83;;;;;;;8.37;100.00;95376.56;7400880;19;20007;-57
2024/04/24 00:39:22;;;;;;;26.80;17.83;;;;;;;8.32;100.00;95374.22;7401446;19;20027;-58
2024/04/24 00:41:48;;;;;;;23.27;18.02;;;;;;;8.29;100.00;95366.53;7401705;19;20107;-57
2024/04/24 00:44:14;;;;;;;23.35;16.42;;;;;;;8.32;100.00;95369.00;7401133;19;20074;-60
2024/04/24 00:46:42;;;;;;;23.48;16.42;;;;;;;8.39;100.00;95363.47;7401105;19;20074;-56
2024/04/24 00:49:09;;;;;;;23.63;15.02;;;;;;;8.36;100.00;95366.25;7399520;19;20021;-57
2024/04/24 00:51:37;;;;;;;17.98;14.88;;;;;;;8.34;100.00;95361.13;7401351;19;20003;-53
2024/04/24 00:54:04;;;;;;;191.25;28.02;;;;;;;8.32;100.00;95362.94;7400762;19;19998;-55
2024/04/24 00:56:29;;;;;;;22.15;16.67;;;;;;;8.33;100.00;95360.25;7400819;19;20454;-54
2024/04/24 00:58:55;;;;;;;27.77;18.27;;;;;;;8.42;100.00;95358.97;7401124;19;19999;-57
2024/04/24 01:01:22;;;;;;;22.50;17.75;;;;;;;8.51;100.00;95343.78;7401111;19;20395;-56
2024/04/24 01:03:47;;;;;;;34.00;20.15;;;;;;;8.54;100.00;95354.09;7400562;19;20015;-61
2024/04/24 01:06:13;;;;;;;30.67;19.98;;;;;;;8.56;100.00;95352.28;7400461;19;20365;-54
2024/04/24 01:08:38;;;;;;;31.15;21.08;;;;;;;8.61;100.00;95352.06;7399797;19;19998;-55
2024/04/24 01:11:04;;;;;;;34.55;20.42;;;;;;;8.52;100.00;95340.28;7400354;19;20365;-57
2024/04/24 01:13:29;;;;;;;27.40;21.02;;;;;;;8.56;100.00;95340.09;7400284;19;20021;-56
2024/04/24 01:15:58;;;;;;;24.45;19.23;;;;;;;8.55;100.00;95351.41;7400552;19;20050;-57
2024/04/24 01:18:26;;;;;;;29.55;19.83;;;;;;;8.51;100.00;95351.59;7400362;19;20003;-60
2024/04/24 01:20:54;;;;;;;28.80;18.58;;;;;;;8.50;100.00;95360.34;7400382;19;20340;-59
2024/04/24 01:23:25;;;;;;;25.02;18.60;;;;;;;8.45;100.00;95356.22;7400177;19;20006;-58
2024/04/24 01:25:50;;;;;;;22.75;18.15;;;;;;;8.32;100.00;95352.50;7399808;19;20481;-57
2024/04/24 01:28:16;;;;;;;22.00;17.38;;;;;;;8.36;100.00;95355.84;7399227;19;20002;-58
2024/04/24 01:30:42;;;;;;;22.17;16.27;;;;;;;8.32;100.00;95361.19;7399638;19;19995;-58
2024/04/24 01:33:07;;;;;;;21.30;16.95;;;;;;;8.27;100.00;95370.13;7398022;19;20026;-58
2024/04/24 01:35:33;;;;;;;18.95;16.67;;;;;;;8.28;100.00;95361.41;7399930;19;19998;-54
2024/04/24 01:37:58;;;;;;;23.52;15.75;;;;;;;8.31;100.00;95364.69;7398303;19;20017;-60
2024/04/24 01:40:24;;;;;;;16.58;14.63;;;;;;;8.09;100.00;95352.69;7399282;19;20573;-59
2024/04/24 01:42:49;;;;;;;16.80;14.55;;;;;;;7.97;100.00;95358.47;7399622;19;20002;-56
2024/04/24 01:45:15;;;;;;;21.88;14.27;;;;;;;7.85;100.00;95352.06;7399155;19;20452;-57
2024/04/24 01:47:40;;;;;;;17.75;13.57;;;;;;;7.84;100.00;95356.44;7399159;19;19994;-60
2024/04/24 01:50:06;;;;;;;14.27;12.75;;;;;;;7.76;100.00;95349.88;7397306;19;19995;-58
2024/04/24 01:52:32;;;;;;;14.73;13.23;;;;;;;7.83;100.00;95344.31;7399435;19;20350;-59
2024/04/24 01:54:57;;;;;;;16.77;13.77;;;;;;;7.83;100.00;95351.31;7398856;19;20009;-57
2024/04/24 01:57:23;;;;;;;17.80;12.73;;;;;;;7.65;100.00;95351.22;7399167;19;19995;-56
2024/04/24 01:59:48;;;;;;;17.00;11.85;;;;;;;7.43;100.00;95349.59;7399098;19;19999;-55
2024/04/24 02:02:14;;;;;;;13.07;11.77;;;;;;;7.48;100.00;95353.75;7398601;19;20351;-59
2024/04/24 02:04:40;;;;;;;13.68;12.07;;;;;;;7.40;100.00;95339.31;7398548;19;20003;-58
2024/04/24 02:07:05;;;;;;;16.00;12.32;;;;;;;7.32;100.00;95344.03;7398546;19;20015;-58
2024/04/24 02:09:31;;;;;;;13.88;12.27;;;;;;;7.41;100.00;95350.59;7396974;19;20002;-55
2024/04/24 02:11:56;;;;;;;18.33;12.82;;;;;;;7.37;100.00;95344.66;7398353;19;20034;-57
2024/04/24 02:14:22;;;;;;;14.52;12.20;;;;;;;7.38;100.00;95346.38;7398310;19;20002;-58
2024/04/24 02:16:47;;;;;;;12.90;11.50;;;;;;;7.36;100.00;95344.72;7398511;19;20009;-57
2024/04/24 02:19:13;;;;;;;15.18;12.02;;;;;;;7.35;100.00;95341.28;7398092;19;20018;-56
2024/04/24 02:21:38;;;;;;;12.00;10.80;;;;;;;7.16;100.00;95349.88;7398036;19;20383;-55
2024/04/24 02:24:06;;;;;;;14.18;11.25;;;;;;;6.98;100.00;95345.50;7398357;19;20349;-60
2024/04/24 02:26:32;;;;;;;14.30;11.55;;;;;;;7.11;100.00;95346.66;7397790;19;20351;-60
2024/04/24 02:28:57;;;;;;;13.68;12.23;;;;;;;7.15;100.00;95335.19;7396770;19;20009;-61
2024/04/24 02:31:23;;;;;;;13.25;11.45;;;;;;;7.03;100.00;95341.78;7397955;19;20074;-57
2024/04/24 02:33:48;;;;;;;14.98;13.38;;;;;;;7.19;100.00;95338.50;7397548;19;20345;-61
2024/04/24 02:36:14;;;;;;;12.60;11.32;;;;;;;7.19;100.00;95338.50;7397448;19;19998;-56
2024/04/24 02:38:39;;;;;;;11.77;10.63;;;;;;;7.02;100.00;95331.44;7396335;19;19999;-57
2024/04/24 02:41:05;;;;;;;12.18;10.50;;;;;;;7.04;100.00;95334.81;7397241;19;20077;-52
2024/04/24 02:43:31;;;;;;;12.52;11.18;;;;;;;6.94;100.00;95322.22;7397324;19;20593;-59
2024/04/24 02:45:56;;;;;;;12.68;11.35;;;;;;;6.92;100.00;95328.38;7394988;19;20009;-57
2024/04/24 02:48:22;;;;;;;16.30;14.27;;;;;;;7.14;100.00;95324.88;7397110;19;20019;-57
2024/04/24 02:50:47;;;;;;;20.60;13.10;;;;;;;7.15;100.00;95326.53;7397372;19;20002;-55
2024/04/24 02:53:13;;;;;;;18.88;13.93;;;;;;;7.06;100.00;95325.19;7397220;19;20003;-57
2024/04/24 02:55:38;;;;;;;17.35;14.02;;;;;;;7.00;100.00;95323.72;7396875;19;20463;-54
2024/04/24 02:58:04;;;;;;;18.10;13.05;;;;;;;6.99;100.00;95326.38;7396802;19;19994;-61
2024/04/24 03:00:29;;;;;;;21.80;14.07;;;;;;;6.85;100.00;95325.22;7396532;19;20002;-53
2024/04/24 03:02:55;;;;;;;16.33;14.02;;;;;;;7.07;100.00;95321.69;7396963;19;20005;-55
2024/04/24 03:05:20;;;;;;;17.65;13.02;;;;;;;7.04;100.00;95320.06;7396823;19;20062;-59
2024/04/24 03:07:46;;;;;;;33.33;15.75;;;;;;;7.09;100.00;95309.47;7396822;19;20467;-60
2024/04/24 03:10:12;;;;;;;40.70;16.20;;;;;;;7.13;100.00;95302.38;7394832;19;20347;-57
2024/04/24 03:12:37;;;;;;;31.45;20.92;;;;;;;7.12;100.00;95311.06;7396250;19;19994;-55
2024/04/24 03:15:03;;;;;;;18.48;13.95;;;;;;;7.05;100.00;95319.13;7396333;19;19995;-56
2024/04/24 03:17:29;;;;;;;20.33;13.52;;;;;;;6.99;100.00;95321.19;7396484;19;20003;-57
2024/04/24 03:19:54;;;;;;;55.08;16.38;;;;;;;6.98;100.00;95317.72;7396027;19;20426;-56
2024/04/24 03:22:20;;;;;;;79.53;18.02;;;;;;;6.93;100.00;95319.69;7395966;19;20010;-57
2024/04/24 03:24:46;;;;;;;25.70;15.82;;;;;;;6.96;100.00;95337.75;7395982;19;20006;-61
2024/04/24 03:27:12;;;;;;;19.90;14.77;;;;;;;7.04;100.00;95342.59;7395950;19;20452;-54
2024/04/24 03:29:38;;;;;;;19.67;14.07;;;;;;;7.03;100.00;95340.94;7394504;19;20028;-57
2024/04/24 03:32:04;;;;;;;38.13;15.70;;;;;;;7.10;100.00;95338.94;7395643;19;20082;-61
2024/04/24 03:34:30;;;;;;;18.90;14.50;;;;;;;7.08;100.00;95349.38;7396014;19;20007;-59
2024/04/24 03:36:56;;;;;;;22.27;12.73;;;;;;;7.06;100.00;95354.66;7394952;19;20412;-58
2024/04/24 03:39:21;;;;;;;38.92;14.13;;;;;;;7.05;100.00;95358.16;7395585;19;20047;-52
2024/04/24 03:41:47;;;;;;;69.57;14.27;;;;;;;7.08;100.00;95344.19;7395969;19;20006;-58
2024/04/24 03:44:12;;;;;;;37.35;14.10;;;;;;;7.17;100.00;95350.75;7395458;19;20427;-58
2024/04/24 03:46:40;;;;;;;70.15;15.43;;;;;;;7.27;100.00;95352.03;7395749;19;20040;-57
2024/04/24 03:49:06;;;;;;;38.80;15.18;;;;;;;7.34;100.00;95350.00;7394341;19;19995;-52
2024/04/24 03:51:32;;;;;;;92.60;15.98;;;;;;;7.33;100.00;95356.13;7395584;19;19998;-56
2024/04/24 03:53:57;;;;;;;40.30;13.95;;;;;;;7.41;100.00;95358.38;7395102;19;20339;-52
2024/04/24 03:56:23;;;;;;;25.35;14.02;;;;;;;7.43;100.00;95362.59;7395816;19;20051;-53
2024/04/24 03:58:48;;;;;;;176.00;19.23;;;;;;;7.41;100.00;95367.00;7403194;19;20032;-54
2024/04/24 04:01:14;;;;;;;86.72;14.63;;;;;;;7.34;100.00;95368.19;7402637;19;19994;-59
2024/04/24 04:03:40;;;;;;;115.93;14.05;;;;;;;7.39;100.00;95361.06;7402504;19;20025;-55
2024/04/24 04:06:05;;;;;;;242.52;18.33;;;;;;;7.37;100.00;95362.88;7402553;19;19999;-55
2024/04/24 04:08:31;;;;;;;221.00;17.65;;;;;;;7.27;100.00;95353.78;7402457;19;20018;-57
2024/04/24 04:10:56;;;;;;;184.75;15.85;;;;;;;7.27;100.00;95348.56;7402316;19;20009;-61
2024/04/24 04:13:22;;;;;;;118.03;14.68;;;;;;;7.35;100.00;95351.69;7402559;19;20028;-52
2024/04/24 04:15:48;;;;;;;122.40;14.88;;;;;;;7.37;100.00;95352.47;7402245;19;20466;-55
2024/04/24 04:18:13;;;;;;;227.95;16.77;;;;;;;7.35;100.00;95358.66;7402376;19;20007;-55
2024/04/24 04:20:39;;;;;;;128.98;14.60;;;;;;;7.26;100.00;95354.69;7401995;19;20463;-56
2024/04/24 04:23:04;;;;;;;71.70;12.95;;;;;;;7.39;100.00;95355.00;7401886;19;20325;-57
2024/04/24 04:25:30;;;;;;;22.55;11.73;;;;;;;7.54;100.00;95359.53;7401816;19;20070;-55
2024/04/24 04:27:58;;;;;;;14.25;10.70;;;;;;;7.74;100.00;95356.94;7401686;19;20003;-54
2024/04/24 04:30:24;;;;;;;11.32;9.93;;;;;;;7.87;100.00;95359.81;7398825;19;20006;-56
2024/04/24 04:32:50;;;;;;;10.52;9.43;;;;;;;8.06;100.00;95355.44;7401650;19;20002;-57
2024/04/24 04:35:15;;;;;;;10.98;9.90;;;;;;;8.15;100.00;95348.09;7401556;19;20026;-56
2024/04/24 04:37:41;;;;;;;10.75;9.27;;;;;;;8.16;100.00;95353.22;7400289;19;20036;-54
2024/04/24 04:40:07;;;;;;;9.55;8.68;;;;;;;8.02;100.00;95351.31;7401803;19;20409;-56
2024/04/24 04:42:33;;;;;;;14.25;8.65;;;;;;;8.30;100.00;95363.00;7401709;19;20393;-59
2024/04/24 04:44:58;;;;;;;9.85;8.95;;;;;;;8.37;100.00;95353.13;7401267;19;20088;-57
2024/04/24 04:47:24;;;;;;;8.23;7.38;;;;;;;8.38;100.00;95359.19;7401257;19;20002;-58
2024/04/24 04:49:50;;;;;;;12.40;8.55;;;;;;;8.72;100.00;95353.22;7399474;19;20029;-59
2024/04/24 04:52:15;;;;;;;12.02;8.18;;;;;;;9.08;100.00;95361.88;7400976;19;20452;-57
2024/04/24 04:54:41;;;;;;;11.05;8.30;;;;;;;9.27;100.00;95355.69;7400850;19;20040;-54
2024/04/24 04:57:07;;;;;;;15.95;10.50;;;;;;;9.56;100.00;95358.56;7400804;19;19998;-57
2024/04/24 04:59:32;;;;;;;16.25;9.18;;;;;;;9.68;100.00;95359.69;7400796;19;19999;-59
2024/04/24 05:01:58;;;;;;;11.02;8.45;;;;;;;9.81;100.00;95361.66;7400679;19;20006;-58
2024/04/24 05:04:23;;;;;;;8.55;7.65;;;;;;;10.31;100.00;95354.56;7400592;19;19999;-59
2024/04/24 05:06:49;;;;;;;9.00;7.85;;;;;;;10.93;100.00;95354.63;7400510;19;20011;-55
2024/04/24 05:09:15;;;;;;;9.48;7.45;;;;;;;11.41;100.00;95364.06;7396752;19;20012;-59
2024/04/24 05:11:45;;;;;;;7.75;6.88;;;;;;;12.17;100.00;95367.31;7400309;19;20551;-57
2024/04/24 05:14:14;;;;;;;8.23;7.20;;;;;;;12.28;100.00;95369.22;7400817;19;20010;-59
2024/04/24 05:16:40;;;;;;;8.07;5.80;;;;;;;12.61;100.00;95369.78;7400126;19;20015;-60
2024/04/24 05:19:07;;;;;;;7.85;6.57;;;;;;;13.17;100.00;95357.44;7400537;19;20006;-54
2024/04/24 05:21:32;;;;;;;9.18;6.97;;;;;;;12.95;98.78;95362.34;7399965;19;19999;-58
2024/04/24 05:23:58;;;;;;;9.35;6.72;;;;;;;13.32;97.42;95360.81;7400069;19;20002;-58
2024/04/24 05:29:10;;;;;;;9.35;6.63;;;;;;;12.35;100.00;95364.47;7399120;19;20010;-54
2024/04/24 05:31:36;;;;;;;8.18;6.13;;;;;;;14.52;91.50;95376.22;7399602;19;20002;-55
2024/04/24 05:34:05;;;;;;;9.57;6.18;;;;;;;14.77;87.63;95374.41;7399647;19;20070;-57
2024/04/24 05:36:31;;;;;;;9.38;6.18;;;;;;;15.36;83.71;95367.47;7399845;19;20013;-56
2024/04/24 05:38:56;;;;;;;5.75;5.05;;;;;;;14.95;86.97;95372.25;7397320;19;20003;-62
2024/04/24 05:41:22;;;;;;;6.88;5.55;;;;;;;14.36;87.60;95372.03;7399326;19;19999;-54
2024/04/24 05:43:47;;;;;;;6.13;4.95;;;;;;;14.58;87.90;95374.91;7399270;19;19999;-62
2024/04/24 05:46:13;;;;;;;8.23;5.28;;;;;;;14.13;90.40;95369.28;7399207;19;19995;-59
2024/04/24 05:48:38;;;;;;;7.50;4.65;;;;;;;15.09;89.51;95378.28;7398443;19;20396;-54
2024/04/24 05:51:05;;;;;;;5.47;4.82;;;;;;;14.34;93.70;95368.69;7399400;19;19999;-59
2024/04/24 05:53:30;;;;;;;4.90;4.40;;;;;;;14.94;84.19;95375.00;7399126;19;19999;-58
2024/04/24 05:55:56;;;;;;;8.30;4.82;;;;;;;15.14;85.89;95381.41;7398966;19;20031;-57
2024/04/24 05:58:22;;;;;;;9.00;4.30;;;;;;;15.32;87.15;95394.16;7398805;19;19998;-57
2024/04/24 06:00:47;;;;;;;8.15;4.50;;;;;;;15.91;85.08;95392.31;7398770;19;19995;-57
2024/04/24 06:03:13;;;;;;;7.70;4.93;;;;;;;15.52;89.51;95387.34;7399070;19;20357;-56
2024/04/24 06:05:38;;;;;;;6.50;5.03;;;;;;;16.29;84.99;95391.09;7398541;19;20423;-63
2024/04/24 06:08:04;;;;;;;9.18;4.95;;;;;;;15.24;87.19;95392.94;7398332;19;20006;-61
2024/04/24 06:10:30;;;;;;;6.00;5.13;;;;;;;14.52;90.70;95387.59;7398499;19;20003;-57
2024/04/24 06:12:55;;;;;;;8.75;5.40;;;;;;;14.01;94.88;95393.81;7398336;19;20003;-60
2024/04/24 06:15:21;;;;;;;8.80;5.25;;;;;;;13.97;96.40;95395.81;7398346;19;20002;-60
2024/04/24 06:17:47;;;;;;;9.80;5.68;;;;;;;14.03;98.09;95384.03;7398200;19;20002;-58
2024/04/24 06:20:16;;;;;;;14.32;5.55;;;;;;;15.01;89.83;95392.00;7397571;19;20002;-59
2024/04/24 06:22:42;;;;;;;7.70;5.32;;;;;;;16.32;82.04;95391.84;7398049;19;20002;-56
2024/04/24 06:25:07;;;;;;;11.50;5.40;;;;;;;16.23;85.18;95398.69;7398216;19;20011;-63
2024/04/24 06:27:34;;;;;;;9.70;4.43;;;;;;;16.58;79.88;95394.19;7397840;19;20017;-54
2024/04/24 06:29:59;;;;;;;12.73;5.22;;;;;;;15.83;87.48;95390.25;7396443;19;20007;-59
2024/04/24 06:32:25;;;;;;;12.18;5.03;;;;;;;16.10;85.27;95385.63;7397651;19;20337;-59
2024/04/24 06:34:50;;;;;;;13.10;4.65;;;;;;;16.21;87.36;95388.25;7397940;19;20045;-58
2024/04/24 06:37:16;;;;;;;5.80;4.18;;;;;;;16.73;81.90;95385.03;7396682;19;20390;-59
2024/04/24 06:39:41;;;;;;;8.00;4.57;;;;;;;17.29;78.28;95379.66;7397767;19;20011;-61
2024/04/24 06:42:08;;;;;;;13.07;4.95;;;;;;;17.49;75.17;95387.72;7397364;19;20370;-58
2024/04/24 06:44:37;;;;;;;6.95;4.20;;;;;;;17.09;77.52;95381.31;7397699;19;20374;-57
2024/04/24 06:47:02;;;;;;;8.88;4.30;;;;;;;17.62;77.67;95384.88;7397256;19;20011;-61
2024/04/24 06:49:28;;;;;;;9.50;4.00;;;;;;;17.14;75.34;95389.69;7396177;19;20011;-59
2024/04/24 06:51:54;;;;;;;11.45;4.05;;;;;;;17.26;77.66;95393.13;7397408;19;20459;-56
2024/04/24 06:54:20;;;;;;;11.43;4.80;;;;;;;16.26;79.41;95386.06;7396930;19;20339;-61
2024/04/24 06:56:46;;;;;;;10.60;4.43;;;;;;;15.55;82.55;95392.41;7396754;19;20003;-56
2024/04/24 06:59:11;;;;;;;6.55;4.35;;;;;;;17.21;77.61;95395.31;7396640;19;20003;-56
2024/04/24 07:01:37;;;;;;;9.38;4.43;;;;;;;17.74;79.03;95398.84;7396862;19;20405;-61
2024/04/24 07:04:02;;;;;;;10.85;4.05;;;;;;;17.40;83.67;95397.28;7396564;19;19994;-61
2024/04/24 07:06:28;;;;;;;9.13;4.75;;;;;;;17.97;77.15;95393.41;7396936;19;20372;-60
2024/04/24 07:08:53;;;;;;;10.23;4.25;;;;;;;18.08;76.04;95393.31;7395671;19;20455;-58
2024/04/24 07:11:19;;;;;;;15.93;4.38;;;;;;;19.04;69.70;95399.97;7396458;19;19999;-56
2024/04/24 07:13:44;;;;;;;10.18;4.57;;;;;;;18.91;73.16;95397.56;7396254;19;20006;-62
2024/04/24 07:16:10;;;;;;;16.70;3.88;;;;;;;19.20;71.13;95393.28;7396184;19;20062;-55
2024/04/24 07:18:36;;;;;;;10.50;3.95;;;;;;;18.85;74.80;95389.34;7396647;19;20031;-58
2024/04/24 07:21:01;;;;;;;9.18;4.10;;;;;;;18.89;75.30;95388.94;7396204;19;20354;-61
2024/04/24 07:23:27;;;;;;;11.00;3.70;;;;;;;19.18;69.58;95395.25;7395982;19;20451;-61
2024/04/24 07:25:52;;;;;;;10.05;4.20;;;;;;;18.71;71.97;95390.56;7395913;19;20079;-63
2024/04/24 07:28:18;;;;;;;8.95;3.80;;;;;;;18.78;73.95;95389.88;7395621;19;20006;-64
2024/04/24 07:30:44;;;;;;;9.68;4.10;;;;;;;19.20;75.49;95387.97;7395328;19;20006;-58
2024/04/24 07:33:09;;;;;;;8.40;4.10;;;;;;;20.20;66.99;95397.44;7394711;19;20003;-62
2024/04/24 07:35:35;;;;;;;10.35;3.63;;;;;;;20.36;68.28;95399.44;7395630;19;20003;-59
2024/04/24 07:38:01;;;;;;;11.25;3.95;;;;;;;19.59;69.79;95388.94;7394429;19;19995;-61
2024/04/24 07:40:26;;;;;;;12.65;4.22;;;;;;;20.10;68.34;95393.97;7395455;19;20360;-63
2024/04/24 07:42:52;;;;;;;8.70;3.95;;;;;;;20.05;66.14;95389.91;7395847;19;20010;-60
2024/04/24 07:45:18;;;;;;;8.93;3.47;;;;;;;20.78;66.50;95394.59;7395369;19;20376;-62
2024/04/24 07:47:43;;;;;;;18.48;4.15;;;;;;;20.49;68.33;95396.44;7395355;19;20005;-58
2024/04/24 07:50:09;;;;;;;11.40;4.18;;;;;;;20.19;73.79;95396.56;7393801;19;20020;-56
2024/04/24 07:52:35;;;;;;;14.55;4.68;;;;;;;19.16;72.73;95405.13;7395578;19;19998;-58
2024/04/24 07:55:00;;;;;;;8.98;3.75;;;;;;;19.98;74.20;95410.03;7395230;19;20356;-57
2024/04/24 07:57:26;;;;;;;14.13;4.15;;;;;;;20.62;67.96;95417.31;7395474;19;19991;-61
2024/04/24 07:59:51;;;;;;;11.75;4.32;;;;;;;20.73;67.16;95423.41;7395369;19;20005;-53
2024/04/24 08:02:17;;;;;;;7.40;3.92;;;;;;;20.58;69.65;95423.91;7395220;19;20473;-58
2024/04/24 08:04:43;;;;;;;16.33;3.92;;;;;;;20.17;71.62;95425.06;7395162;19;20343;-58
2024/04/24 08:07:09;;;;;;;8.93;3.85;;;;;;;20.08;72.83;95413.50;7394771;19;20010;-58
2024/04/24 08:09:34;;;;;;;11.60;3.42;;;;;;;20.90;70.69;95421.81;7393520;19;20010;-61
2024/04/24 08:12:00;;;;;;;8.57;3.85;;;;;;;20.81;68.78;95421.69;7394578;19;19995;-54
2024/04/24 08:14:26;;;;;;;6.88;3.72;;;;;;;21.69;66.61;95424.66;7395052;19;20007;-56
2024/04/24 08:16:51;;;;;;;11.38;5.03;;;;;;;20.48;70.27;95423.13;7394622;19;20369;-61
2024/04/24 08:19:17;;;;;;;12.30;4.65;;;;;;;21.55;68.46;95419.91;7394540;19;20003;-61
2024/04/24 08:21:42;;;;;;;16.85;4.47;;;;;;;21.13;69.49;95414.22;7394837;19;19999;-55
2024/04/24 08:24:08;;;;;;;13.55;5.15;;;;;;;21.17;71.64;95420.06;7394380;19;20403;-59
2024/04/24 08:26:33;;;;;;;13.73;4.95;;;;;;;20.59;72.39;95417.63;7394280;19;20348;-55
2024/04/24 08:28:59;;;;;;;14.15;5.32;;;;;;;21.19;71.68;95423.44;7393864;19;20003;-59
2024/04/24 08:31:24;;;;;;;12.93;5.97;;;;;;;21.38;68.15;95425.09;7394586;19;20464;-54
2024/04/24 08:33:50;;;;;;;19.58;6.20;;;;;;;20.75;71.94;95438.22;7394123;19;20491;-54
2024/04/24 08:36:16;;;;;;;14.93;6.20;;;;;;;20.96;70.07;95431.84;7394157;19;20003;-63
2024/04/24 08:38:42;;;;;;;15.32;5.63;;;;;;;21.11;70.54;95429.50;7392049;19;19999;-53
2024/04/24 08:41:11;;;;;;;12.52;5.38;;;;;;;20.92;70.49;95425.97;7393900;19;20003;-59
2024/04/24 08:43:41;;;;;;;13.07;6.10;;;;;;;20.99;64.54;95428.03;7398496;19;20464;-58
2024/04/24 08:46:11;;;;;;;16.25;5.25;;;;;;;21.33;69.17;95422.88;7401381;19;20032;-56
2024/04/24 08:48:41;;;;;;;18.58;6.18;;;;;;;20.67;72.28;95431.00;7400730;19;20015;-60
2024/04/24 08:51:11;;;;;;;17.48;5.95;;;;;;;21.58;67.00;95430.22;7401051;19;19995;-57
2024/04/24 08:53:46;;;;;;;17.58;6.43;;;;;;;20.51;69.48;95428.16;7401408;19;20014;-61
2024/04/24 08:56:15;;;;;;;17.42;6.63;;;;;;;21.15;67.78;95427.34;7401275;19;20050;-57
2024/04/24 08:58:45;;;;;;;13.00;5.80;;;;;;;20.93;70.36;95419.69;7400897;19;20013;-63
2024/04/24 09:01:14;;;;;;;12.43;5.63;;;;;;;21.57;69.42;95417.91;7400783;19;20605;-58
2024/04/24 09:03:44;;;;;;;16.50;5.90;;;;;;;21.42;68.68;95420.28;7400523;19;20244;-60
2024/04/24 09:06:11;;;;;;;14.23;6.43;;;;;;;21.57;69.98;95415.25;7400611;19;20010;-56
2024/04/24 09:08:38;;;;;;;11.98;5.70;;;;;;;21.64;66.46;95413.63;7400269;19;20007;-61
2024/04/24 09:11:06;;;;;;;14.25;5.80;;;;;;;21.19;69.55;95408.28;7400418;19;20003;-58
2024/04/24 09:13:32;;;;;;;18.63;6.30;;;;;;;21.06;68.11;95400.72;7400736;19;20079;-56
2024/04/24 09:15:59;;;;;;;12.50;6.07;;;;;;;21.38;65.59;95401.16;7400333;19;20001;-56
2024/04/24 09:18:25;;;;;;;18.13;6.35;;;;;;;21.63;70.20;95384.53;7400608;19;20414;-61
2024/04/24 09:20:52;;;;;;;12.13;5.40;;;;;;;21.84;66.57;95378.88;7400144;19;19999;-59
2024/04/24 09:23:24;;;;;;;18.42;6.10;;;;;;;21.65;67.05;95380.75;7400379;19;20034;-58
2024/04/24 09:25:51;;;;;;;19.70;6.63;;;;;;;22.11;64.17;95377.03;7399966;19;20074;-64
2024/04/24 09:28:19;;;;;;;21.13;6.57;;;;;;;21.76;66.17;95374.34;7399600;19;20014;-53
2024/04/24 09:30:45;;;;;;;17.77;6.70;;;;;;;21.15;67.42;95377.69;7399761;19;19995;-61
2024/04/24 09:33:12;;;;;;;15.10;5.97;;;;;;;21.60;67.93;95372.38;7399636;19;20016;-59
2024/04/24 09:35:38;;;;;;;16.80;6.07;;;;;;;22.53;63.62;95379.84;7399587;19;20006;-55
2024/04/24 09:38:05;;;;;;;20.48;5.70;;;;;;;22.66;64.94;95366.13;7398356;19;20340;-58
2024/04/24 09:40:33;;;;;;;19.20;5.55;;;;;;;22.21;66.60;95374.22;7399484;19;20365;-55
2024/04/24 09:42:58;;;;;;;26.33;5.65;;;;;;;22.90;63.62;95378.63;7399338;19;19999;-57
2024/04/24 09:45:27;;;;;;;15.00;6.18;;;;;;;22.54;65.53;95377.03;7399766;19;20013;-55
2024/04/24 09:47:53;;;;;;;20.50;5.60;;;;;;;23.14;61.44;95385.00;7399727;19;20014;-60
2024/04/24 09:50:18;;;;;;;20.25;5.80;;;;;;;22.49;62.26;95374.03;7397003;19;20336;-55
2024/04/24 09:52:48;;;;;;;22.65;6.10;;;;;;;22.22;58.88;95373.25;7399061;19;20066;-54
2024/04/24 09:55:14;;;;;;;24.83;6.45;;;;;;;22.42;59.45;95367.66;7397690;19;20007;-54
2024/04/24 09:57:43;;;;;;;24.25;5.90;;;;;;;21.95;57.86;95362.63;7398854;19;19995;-56
2024/04/24 10:00:12;;;;;;;24.80;5.93;;;;;;;22.50;61.22;95365.03;7398838;19;19995;-59
2024/04/24 10:02:45;;;;;;;27.80;6.03;;;;;;;23.03;58.44;95372.81;7398708;19;20016;-53
2024/04/24 10:05:20;;;;;;;21.90;5.68;;;;;;;22.94;62.13;95355.16;7398598;19;20354;-56
2024/04/24 10:07:57;;;;;;;25.02;6.03;;;;;;;22.87;58.87;95354.97;7398626;19;19998;-53
2024/04/24 10:10:32;;;;;;;17.98;5.25;;;;;;;23.04;58.25;95355.00;7397111;19;20066;-55
2024/04/24 10:13:01;;;;;;;24.05;6.45;;;;;;;22.35;62.28;95340.84;7398941;19;20106;-53
2024/04/24 10:15:33;;;;;;;16.63;6.03;;;;;;;22.91;61.86;95350.16;7398276;19;19998;-53
2024/04/24 10:17:59;;;;;;;21.27;6.50;;;;;;;23.05;61.72;95354.00;7398819;19;20070;-56
2024/04/24 10:20:26;;;;;;;16.95;6.35;;;;;;;22.46;61.85;95353.84;7398214;19;19998;-57
2024/04/24 10:22:53;;;;;;;18.02;6.55;;;;;;;22.36;63.22;95355.00;7398057;19;19995;-58
2024/04/24 10:25:21;;;;;;;20.45;7.15;;;;;;;22.30;62.29;95359.97;7397852;19;20003;-56
2024/04/24 10:27:48;;;;;;;16.40;6.78;;;;;;;22.27;64.60;95356.81;7397915;19;19998;-57
2024/04/24 10:30:16;;;;;;;14.57;6.82;;;;;;;20.58;65.36;95358.38;7396426;19;20010;-59
2024/04/24 10:32:42;;;;;;;21.80;7.55;;;;;;;21.57;67.67;95362.88;7398187;19;20017;-60
2024/04/24 10:35:08;;;;;;;17.98;7.72;;;;;;;21.03;68.70;95360.28;7397534;19;20448;-61
2024/04/24 10:37:34;;;;;;;20.20;6.97;;;;;;;21.79;63.95;95357.25;7396508;19;20370;-55
2024/04/24 10:40:00;;;;;;;17.08;6.97;;;;;;;21.16;64.46;95366.06;7397531;19;20002;-57
2024/04/24 10:42:25;;;;;;;23.13;7.32;;;;;;;21.55;69.95;95367.53;7397405;19;20010;-55
2024/04/24 10:44:53;;;;;;;17.58;7.72;;;;;;;21.70;67.07;95359.81;7397212;19;20003;-53
2024/04/24 10:47:19;;;;;;;19.88;7.28;;;;;;;22.49;62.82;95368.69;7397577;19;20015;-61
2024/04/24 10:49:58;;;;;;;23.70;7.63;;;;;;;21.90;70.14;95359.63;7395922;19;20062;-55
2024/04/24 10:52:24;;;;;;;24.92;8.05;;;;;;;21.50;64.66;95353.03;7397157;19;20003;-58
2024/04/24 10:54:51;;;;;;;19.15;8.63;;;;;;;20.50;67.47;95360.09;7396910;19;20441;-58
2024/04/24 10:57:16;;;;;;;24.70;8.02;;;;;;;20.33;71.06;95366.06;7396958;19;19991;-56
2024/04/24 10:59:45;;;;;;;19.90;7.57;;;;;;;21.36;67.88;95370.38;7397170;19;20020;-58
2024/04/24 11:02:20;;;;;;;21.25;8.15;;;;;;;21.32;66.17;95372.50;7396707;19;20015;-52
2024/04/24 11:04:47;;;;;;;18.30;7.90;;;;;;;21.00;65.47;95377.38;7396750;19;20020;-56
2024/04/24 11:07:17;;;;;;;30.88;8.88;;;;;;;21.29;70.35;95380.78;7394323;19;20006;-52
2024/04/24 11:09:44;;;;;;;21.88;8.57;;;;;;;22.03;66.89;95375.16;7395386;19;20007;-62
2024/04/24 11:12:10;;;;;;;19.42;7.90;;;;;;;22.03;66.32;95369.00;7396797;19;20002;-65
2024/04/24 11:14:41;;;;;;;20.88;8.43;;;;;;;21.49;64.19;95370.78;7396304;19;20392;-51
2024/04/24 11:17:07;;;;;;;22.02;8.85;;;;;;;21.70;67.02;95359.81;7396166;19;19999;-62
2024/04/24 11:19:33;;;;;;;24.75;8.00;;;;;;;20.66;67.42;95362.94;7396281;19;20002;-56